sensor_id;sensor_type;location;lat;lon;timestamp;temperature;humidity
4673;DHT22;61885;53.560;9.940;2022-08-05T00:01:27;18.50;99.90
4673;DHT22;61885;53.560;9.940;2022-08-05T00:03:55;18.50;99.90
4673;DHT22;61885;53.560;9.940;2022-08-05T00:06:24;18.50;99.90
4673;DHT22;61885;53.560;9.940;2022-08-05T00:08:52;18.50;99.90
4673;DHT22;61885;53.560;9.940;2022-08-05T00:11:23;18.50;99.90
4673;DHT22;61885;53.560;9.940;2022-08-05T00:13:52;18.50;99.90
4673;DHT22;61885;53.560;9.940;2022-08-05T00:16:21;18.50;99.90
4673;DHT22;61885;53.560;9.940;2022-08-05T00:18:49;18.50;99.90
4673;DHT22;61885;53.560;9.940;2022-08-05T00:21:18;18.40;99.90
4673;DHT22;61885;53.560;9.940;2022-08-05T00:23:47;18.40;99.90
4673;DHT22;61885;53.560;9.940;2022-08-05T00:26:16;18.40;99.90
4673;DHT22;61885;53.560;9.940;2022-08-05T00:28:47;18.40;99.90
4673;DHT22;61885;53.560;9.940;2022-08-05T00:31:16;18.30;99.90
4673;DHT22;61885;53.560;9.940;2022-08-05T00:33:44;18.30;99.90
4673;DHT22;61885;53.560;9.940;2022-08-05T00:36:13;18.30;99.90
4673;DHT22;61885;53.560;9.940;2022-08-05T00:38:42;18.20;99.90
4673;DHT22;61885;53.560;9.940;2022-08-05T00:41:10;18.20;99.90
4673;DHT22;61885;53.560;9.940;2022-08-05T00:43:39;18.00;99.90
4673;DHT22;61885;53.560;9.940;2022-08-05T00:46:11;18.30;99.90
4673;DHT22;61885;53.560;9.940;2022-08-05T00:48:39;17.90;99.90
4673;DHT22;61885;53.560;9.940;2022-08-05T00:51:08;17.90;99.90
4673;DHT22;61885;53.560;9.940;2022-08-05T00:53:37;17.90;99.90
4673;DHT22;61885;53.560;9.940;2022-08-05T00:56:06;17.90;99.90
4673;DHT22;61885;53.560;9.940;2022-08-05T00:58:35;17.80;99.90
4673;DHT22;61885;53.560;9.940;2022-08-05T01:01:03;17.70;99.90
4673;DHT22;61885;53.560;9.940;2022-08-05T01:03:35;17.70;99.90
4673;DHT22;61885;53.560;9.940;2022-08-05T01:06:03;17.70;99.90
4673;DHT22;61885;53.560;9.940;2022-08-05T01:08:36;17.70;99.90
4673;DHT22;61885;53.560;9.940;2022-08-05T01:11:10;17.70;99.90
4673;DHT22;61885;53.560;9.940;2022-08-05T01:13:44;17.70;99.90
4673;DHT22;61885;53.560;9.940;2022-08-05T01:16:21;17.70;99.90
4673;DHT22;61885;53.560;9.940;2022-08-05T01:18:59;17.70;99.90
4673;DHT22;61885;53.560;9.940;2022-08-05T01:21:59;20.00;99.90
4673;DHT22;61885;53.560;9.940;2022-08-05T01:24:46;17.70;99.90
4673;DHT22;61885;53.560;9.940;2022-08-05T01:30:06;17.80;99.90
4673;DHT22;61885;53.560;9.940;2022-08-05T01:32:38;17.70;99.90
4673;DHT22;61885;53.560;9.940;2022-08-05T01:35:10;17.80;99.90
4673;DHT22;61885;53.560;9.940;2022-08-05T01:37:46;17.70;99.90
4673;DHT22;61885;53.560;9.940;2022-08-05T01:40:20;17.70;99.90
4673;DHT22;61885;53.560;9.940;2022-08-05T01:42:51;17.70;99.90
4673;DHT22;61885;53.560;9.940;2022-08-05T01:45:23;17.80;99.90
4673;DHT22;61885;53.560;9.940;2022-08-05T01:47:53;17.70;99.90
4673;DHT22;61885;53.560;9.940;2022-08-05T01:50:25;17.70;99.90
4673;DHT22;61885;53.560;9.940;2022-08-05T01:53:00;17.80;99.90
4673;DHT22;61885;53.560;9.940;2022-08-05T01:55:32;17.70;99.90
4673;DHT22;61885;53.560;9.940;2022-08-05T01:58:03;17.80;99.90
4673;DHT22;61885;53.560;9.940;2022-08-05T02:00:38;17.70;99.90
4673;DHT22;61885;53.560;9.940;2022-08-05T02:03:12;17.70;99.90
4673;DHT22;61885;53.560;9.940;2022-08-05T02:05:44;17.70;99.90
4673;DHT22;61885;53.560;9.940;2022-08-05T02:08:14;17.70;99.90
4673;DHT22;61885;53.560;9.940;2022-08-05T02:10:47;17.80;99.90
4673;DHT22;61885;53.560;9.940;2022-08-05T02:13:19;17.80;99.90
4673;DHT22;61885;53.560;9.940;2022-08-05T02:16:01;17.80;99.90
4673;DHT22;61885;53.560;9.940;2022-08-05T02:18:35;17.60;99.90
4673;DHT22;61885;53.560;9.940;2022-08-05T02:21:12;17.60;99.90
4673;DHT22;61885;53.560;9.940;2022-08-05T02:23:44;17.70;99.90
4673;DHT22;61885;53.560;9.940;2022-08-05T02:26:26;17.70;99.90
4673;DHT22;61885;53.560;9.940;2022-08-05T02:28:58;17.60;99.90
4673;DHT22;61885;53.560;9.940;2022-08-05T02:31:31;17.60;99.90
4673;DHT22;61885;53.560;9.940;2022-08-05T02:34:03;17.50;99.90
4673;DHT22;61885;53.560;9.940;2022-08-05T02:36:33;17.50;99.90
4673;DHT22;61885;53.560;9.940;2022-08-05T02:39:04;17.70;99.90
4673;DHT22;61885;53.560;9.940;2022-08-05T02:41:34;17.70;99.90
4673;DHT22;61885;53.560;9.940;2022-08-05T02:44:06;17.80;99.90
4673;DHT22;61885;53.560;9.940;2022-08-05T02:46:38;17.90;99.90
4673;DHT22;61885;53.560;9.940;2022-08-05T02:49:08;17.80;99.90
4673;DHT22;61885;53.560;9.940;2022-08-05T02:51:37;17.60;99.90
4673;DHT22;61885;53.560;9.940;2022-08-05T02:54:08;17.40;99.90
4673;DHT22;61885;53.560;9.940;2022-08-05T02:56:37;17.40;99.90
4673;DHT22;61885;53.560;9.940;2022-08-05T02:59:09;17.30;99.90
4673;DHT22;61885;53.560;9.940;2022-08-05T03:01:41;17.20;99.90
4673;DHT22;61885;53.560;9.940;2022-08-05T03:04:13;17.00;99.90
4673;DHT22;61885;53.560;9.940;2022-08-05T03:06:42;16.90;99.90
4673;DHT22;61885;53.560;9.940;2022-08-05T03:09:11;16.70;99.90
4673;DHT22;61885;53.560;9.940;2022-08-05T03:11:41;16.70;99.90
4673;DHT22;61885;53.560;9.940;2022-08-05T03:14:10;16.60;99.90
4673;DHT22;61885;53.560;9.940;2022-08-05T03:16:42;16.50;99.90
4673;DHT22;61885;53.560;9.940;2022-08-05T03:19:10;16.50;99.90
4673;DHT22;61885;53.560;9.940;2022-08-05T03:21:39;16.60;99.90
4673;DHT22;61885;53.560;9.940;2022-08-05T03:24:08;16.50;99.90
4673;DHT22;61885;53.560;9.940;2022-08-05T03:26:37;16.50;99.90
4673;DHT22;61885;53.560;9.940;2022-08-05T03:29:06;17.70;99.90
4673;DHT22;61885;53.560;9.940;2022-08-05T03:31:34;16.40;99.90
4673;DHT22;61885;53.560;9.940;2022-08-05T03:34:06;16.40;99.90
4673;DHT22;61885;53.560;9.940;2022-08-05T03:36:34;16.40;99.90
4673;DHT22;61885;53.560;9.940;2022-08-05T03:39:06;16.40;99.90
4673;DHT22;61885;53.560;9.940;2022-08-05T03:41:35;16.40;99.90
4673;DHT22;61885;53.560;9.940;2022-08-05T03:44:04;16.40;99.90
4673;DHT22;61885;53.560;9.940;2022-08-05T03:46:33;16.30;99.90
4673;DHT22;61885;53.560;9.940;2022-08-05T03:49:01;16.40;99.90
4673;DHT22;61885;53.560;9.940;2022-08-05T03:51:37;16.40;99.90
4673;DHT22;61885;53.560;9.940;2022-08-05T03:54:09;16.30;99.90
4673;DHT22;61885;53.560;9.940;2022-08-05T03:56:41;16.30;99.90
4673;DHT22;61885;53.560;9.940;2022-08-05T03:59:13;16.20;99.90
4673;DHT22;61885;53.560;9.940;2022-08-05T04:01:45;16.20;99.90
4673;DHT22;61885;53.560;9.940;2022-08-05T04:04:15;16.20;99.90
4673;DHT22;61885;53.560;9.940;2022-08-05T04:06:47;16.20;99.90
4673;DHT22;61885;53.560;9.940;2022-08-05T04:09:17;16.20;99.90
4673;DHT22;61885;53.560;9.940;2022-08-05T04:11:46;16.20;99.90
4673;DHT22;61885;53.560;9.940;2022-08-05T04:14:15;16.20;99.90
4673;DHT22;61885;53.560;9.940;2022-08-05T04:16:44;16.30;99.90
4673;DHT22;61885;53.560;9.940;2022-08-05T04:19:13;16.20;99.90
4673;DHT22;61885;53.560;9.940;2022-08-05T04:21:42;16.20;99.90
4673;DHT22;61885;53.560;9.940;2022-08-05T04:24:13;16.20;99.90
4673;DHT22;61885;53.560;9.940;2022-08-05T04:26:42;16.20;99.90
4673;DHT22;61885;53.560;9.940;2022-08-05T04:29:11;16.40;99.90
4673;DHT22;61885;53.560;9.940;2022-08-05T04:31:39;16.50;99.90
4673;DHT22;61885;53.560;9.940;2022-08-05T04:34:08;16.70;99.90
4673;DHT22;61885;53.560;9.940;2022-08-05T04:36:37;16.80;99.90
4673;DHT22;61885;53.560;9.940;2022-08-05T04:39:06;16.70;99.90
4673;DHT22;61885;53.560;9.940;2022-08-05T04:41:37;16.60;99.90
4673;DHT22;61885;53.560;9.940;2022-08-05T04:44:06;16.50;99.90
4673;DHT22;61885;53.560;9.940;2022-08-05T04:46:35;16.40;99.90
4673;DHT22;61885;53.560;9.940;2022-08-05T04:49:07;16.50;99.90
4673;DHT22;61885;53.560;9.940;2022-08-05T04:51:36;16.40;99.90
4673;DHT22;61885;53.560;9.940;2022-08-05T04:54:05;16.40;99.90
4673;DHT22;61885;53.560;9.940;2022-08-05T04:56:36;16.40;99.90
4673;DHT22;61885;53.560;9.940;2022-08-05T04:59:05;16.40;99.90
4673;DHT22;61885;53.560;9.940;2022-08-05T05:01:34;16.30;99.90
4673;DHT22;61885;53.560;9.940;2022-08-05T05:04:03;16.40;99.90
4673;DHT22;61885;53.560;9.940;2022-08-05T05:06:32;16.40;99.90
4673;DHT22;61885;53.560;9.940;2022-08-05T05:09:01;16.40;99.90
4673;DHT22;61885;53.560;9.940;2022-08-05T05:11:29;16.30;99.90
4673;DHT22;61885;53.560;9.940;2022-08-05T05:14:01;16.30;99.90
4673;DHT22;61885;53.560;9.940;2022-08-05T05:16:31;16.40;99.90
4673;DHT22;61885;53.560;9.940;2022-08-05T05:19:00;16.40;99.90
4673;DHT22;61885;53.560;9.940;2022-08-05T05:21:32;16.60;99.90
4673;DHT22;61885;53.560;9.940;2022-08-05T05:24:00;16.50;99.90
4673;DHT22;61885;53.560;9.940;2022-08-05T05:26:29;16.50;99.90
4673;DHT22;61885;53.560;9.940;2022-08-05T05:29:00;16.50;99.90
4673;DHT22;61885;53.560;9.940;2022-08-05T05:31:29;16.60;99.90
4673;DHT22;61885;53.560;9.940;2022-08-05T05:33:58;16.60;99.90
4673;DHT22;61885;53.560;9.940;2022-08-05T05:36:27;16.70;99.90
4673;DHT22;61885;53.560;9.940;2022-08-05T05:38:55;16.70;99.90
4673;DHT22;61885;53.560;9.940;2022-08-05T05:41:24;20.20;99.90
4673;DHT22;61885;53.560;9.940;2022-08-05T05:43:53;16.70;99.90
4673;DHT22;61885;53.560;9.940;2022-08-05T05:46:24;16.70;99.90
4673;DHT22;61885;53.560;9.940;2022-08-05T05:48:53;16.70;99.90
4673;DHT22;61885;53.560;9.940;2022-08-05T05:51:22;16.70;99.90
4673;DHT22;61885;53.560;9.940;2022-08-05T05:53:52;16.80;99.90
4673;DHT22;61885;53.560;9.940;2022-08-05T05:56:22;16.80;99.90
4673;DHT22;61885;53.560;9.940;2022-08-05T05:58:50;16.80;99.90
4673;DHT22;61885;53.560;9.940;2022-08-05T06:01:25;16.80;99.90
4673;DHT22;61885;53.560;9.940;2022-08-05T06:03:54;16.70;99.90
4673;DHT22;61885;53.560;9.940;2022-08-05T06:06:22;16.70;99.90
4673;DHT22;61885;53.560;9.940;2022-08-05T06:08:51;16.90;99.90
4673;DHT22;61885;53.560;9.940;2022-08-05T06:11:20;16.70;99.90
4673;DHT22;61885;53.560;9.940;2022-08-05T06:13:52;16.80;99.90
4673;DHT22;61885;53.560;9.940;2022-08-05T06:16:20;16.90;99.90
4673;DHT22;61885;53.560;9.940;2022-08-05T06:18:52;16.90;99.90
4673;DHT22;61885;53.560;9.940;2022-08-05T06:21:21;17.00;99.90
4673;DHT22;61885;53.560;9.940;2022-08-05T06:23:50;17.10;99.90
4673;DHT22;61885;53.560;9.940;2022-08-05T06:26:18;17.20;99.90
4673;DHT22;61885;53.560;9.940;2022-08-05T06:28:47;17.10;99.90
4673;DHT22;61885;53.560;9.940;2022-08-05T06:31:16;17.40;99.90
4673;DHT22;61885;53.560;9.940;2022-08-05T06:33:44;17.20;99.90
4673;DHT22;61885;53.560;9.940;2022-08-05T06:36:15;17.20;99.90
4673;DHT22;61885;53.560;9.940;2022-08-05T06:38:44;17.20;99.90
4673;DHT22;61885;53.560;9.940;2022-08-05T06:41:15;17.30;99.90
4673;DHT22;61885;53.560;9.940;2022-08-05T06:43:43;17.50;99.90
4673;DHT22;61885;53.560;9.940;2022-08-05T06:46:12;17.50;99.90
4673;DHT22;61885;53.560;9.940;2022-08-05T06:48:40;17.50;99.90
4673;DHT22;61885;53.560;9.940;2022-08-05T06:51:09;17.50;99.90
4673;DHT22;61885;53.560;9.940;2022-08-05T06:53:40;17.40;99.90
4673;DHT22;61885;53.560;9.940;2022-08-05T06:56:09;17.40;99.90
4673;DHT22;61885;53.560;9.940;2022-08-05T06:58:37;17.50;99.90
4673;DHT22;61885;53.560;9.940;2022-08-05T07:01:06;17.70;99.90
4673;DHT22;61885;53.560;9.940;2022-08-05T07:03:34;17.70;99.90
4673;DHT22;61885;53.560;9.940;2022-08-05T07:06:04;17.70;99.90
4673;DHT22;61885;53.560;9.940;2022-08-05T07:08:32;17.90;99.90
4673;DHT22;61885;53.560;9.940;2022-08-05T07:11:04;18.00;99.90
4673;DHT22;61885;53.560;9.940;2022-08-05T07:13:33;17.90;99.90
4673;DHT22;61885;53.560;9.940;2022-08-05T07:16:14;17.80;99.90
4673;DHT22;61885;53.560;9.940;2022-08-05T07:18:55;18.00;99.90
4673;DHT22;61885;53.560;9.940;2022-08-05T07:21:24;17.80;99.90
4673;DHT22;61885;53.560;9.940;2022-08-05T07:23:52;17.80;99.90
4673;DHT22;61885;53.560;9.940;2022-08-05T07:26:23;17.90;99.90
4673;DHT22;61885;53.560;9.940;2022-08-05T07:28:52;17.80;99.90
4673;DHT22;61885;53.560;9.940;2022-08-05T07:31:21;17.80;99.90
4673;DHT22;61885;53.560;9.940;2022-08-05T07:33:49;17.80;99.90
4673;DHT22;61885;53.560;9.940;2022-08-05T07:36:18;17.80;99.90
4673;DHT22;61885;53.560;9.940;2022-08-05T07:38:47;17.70;99.90
4673;DHT22;61885;53.560;9.940;2022-08-05T07:41:18;17.70;99.90
4673;DHT22;61885;53.560;9.940;2022-08-05T07:43:50;17.70;99.90
4673;DHT22;61885;53.560;9.940;2022-08-05T07:46:20;17.70;99.90
4673;DHT22;61885;53.560;9.940;2022-08-05T07:48:48;17.70;99.90
4673;DHT22;61885;53.560;9.940;2022-08-05T07:51:17;17.70;99.90
4673;DHT22;61885;53.560;9.940;2022-08-05T07:53:46;17.80;99.90
4673;DHT22;61885;53.560;9.940;2022-08-05T07:56:14;17.80;99.90
4673;DHT22;61885;53.560;9.940;2022-08-05T07:58:43;17.60;99.90
4673;DHT22;61885;53.560;9.940;2022-08-05T08:01:14;17.60;99.90
4673;DHT22;61885;53.560;9.940;2022-08-05T08:03:44;17.50;99.90
4673;DHT22;61885;53.560;9.940;2022-08-05T08:06:13;17.40;99.90
4673;DHT22;61885;53.560;9.940;2022-08-05T08:08:41;17.30;99.90
4673;DHT22;61885;53.560;9.940;2022-08-05T08:11:10;17.30;99.90
4673;DHT22;61885;53.560;9.940;2022-08-05T08:13:40;17.30;99.90
4673;DHT22;61885;53.560;9.940;2022-08-05T08:16:09;17.30;99.90
4673;DHT22;61885;53.560;9.940;2022-08-05T08:18:40;17.20;99.90
4673;DHT22;61885;53.560;9.940;2022-08-05T08:21:10;17.30;99.90
4673;DHT22;61885;53.560;9.940;2022-08-05T08:23:39;17.30;99.90
4673;DHT22;61885;53.560;9.940;2022-08-05T08:26:08;17.30;99.90
4673;DHT22;61885;53.560;9.940;2022-08-05T08:28:36;17.30;99.90
4673;DHT22;61885;53.560;9.940;2022-08-05T08:31:06;17.30;99.90
4673;DHT22;61885;53.560;9.940;2022-08-05T08:33:35;17.20;99.90
4673;DHT22;61885;53.560;9.940;2022-08-05T08:36:07;17.20;99.90
4673;DHT22;61885;53.560;9.940;2022-08-05T08:38:36;17.20;99.90
4673;DHT22;61885;53.560;9.940;2022-08-05T08:41:09;17.20;99.90
4673;DHT22;61885;53.560;9.940;2022-08-05T08:43:40;17.20;99.90
4673;DHT22;61885;53.560;9.940;2022-08-05T08:46:10;17.20;99.90
4673;DHT22;61885;53.560;9.940;2022-08-05T08:48:39;17.30;99.90
4673;DHT22;61885;53.560;9.940;2022-08-05T08:51:11;17.20;99.90
4673;DHT22;61885;53.560;9.940;2022-08-05T08:53:40;17.30;99.90
4673;DHT22;61885;53.560;9.940;2022-08-05T08:56:09;17.30;99.90
4673;DHT22;61885;53.560;9.940;2022-08-05T08:58:38;17.30;99.90
4673;DHT22;61885;53.560;9.940;2022-08-05T09:01:09;17.20;99.90
4673;DHT22;61885;53.560;9.940;2022-08-05T09:03:39;17.10;99.90
4673;DHT22;61885;53.560;9.940;2022-08-05T09:06:11;17.00;99.90
4673;DHT22;61885;53.560;9.940;2022-08-05T09:08:39;17.00;99.90
4673;DHT22;61885;53.560;9.940;2022-08-05T09:11:08;17.10;99.90
4673;DHT22;61885;53.560;9.940;2022-08-05T09:13:38;17.10;99.90
4673;DHT22;61885;53.560;9.940;2022-08-05T09:16:07;17.20;99.90
4673;DHT22;61885;53.560;9.940;2022-08-05T09:18:36;17.10;99.90
4673;DHT22;61885;53.560;9.940;2022-08-05T09:21:05;17.10;99.90
4673;DHT22;61885;53.560;9.940;2022-08-05T09:23:36;17.20;99.90
4673;DHT22;61885;53.560;9.940;2022-08-05T09:26:07;17.20;99.90
4673;DHT22;61885;53.560;9.940;2022-08-05T09:28:37;17.20;99.90
4673;DHT22;61885;53.560;9.940;2022-08-05T09:31:08;17.20;99.90
4673;DHT22;61885;53.560;9.940;2022-08-05T09:33:47;17.20;99.90
4673;DHT22;61885;53.560;9.940;2022-08-05T09:36:16;17.30;99.90
4673;DHT22;61885;53.560;9.940;2022-08-05T09:38:59;17.30;99.90
4673;DHT22;61885;53.560;9.940;2022-08-05T09:41:29;17.40;99.90
4673;DHT22;61885;53.560;9.940;2022-08-05T09:43:57;17.20;99.90
4673;DHT22;61885;53.560;9.940;2022-08-05T09:46:28;17.30;99.90
4673;DHT22;61885;53.560;9.940;2022-08-05T09:48:58;17.20;99.90
4673;DHT22;61885;53.560;9.940;2022-08-05T09:51:33;17.20;99.90
4673;DHT22;61885;53.560;9.940;2022-08-05T09:54:06;17.20;99.90
4673;DHT22;61885;53.560;9.940;2022-08-05T09:56:37;17.40;99.90
4673;DHT22;61885;53.560;9.940;2022-08-05T09:59:08;14.90;99.90
4673;DHT22;61885;53.560;9.940;2022-08-05T10:01:40;17.50;99.90
4673;DHT22;61885;53.560;9.940;2022-08-05T10:04:12;17.50;99.90
4673;DHT22;61885;53.560;9.940;2022-08-05T10:06:52;17.60;99.90
4673;DHT22;61885;53.560;9.940;2022-08-05T10:09:23;17.60;99.90
4673;DHT22;61885;53.560;9.940;2022-08-05T10:11:52;17.50;99.90
4673;DHT22;61885;53.560;9.940;2022-08-05T10:14:22;17.50;99.90
4673;DHT22;61885;53.560;9.940;2022-08-05T10:16:51;17.40;99.90
4673;DHT22;61885;53.560;9.940;2022-08-05T10:19:22;17.30;99.90
4673;DHT22;61885;53.560;9.940;2022-08-05T10:21:51;17.30;99.90
4673;DHT22;61885;53.560;9.940;2022-08-05T10:24:23;18.80;99.90
4673;DHT22;61885;53.560;9.940;2022-08-05T10:26:51;17.40;99.90
4673;DHT22;61885;53.560;9.940;2022-08-05T10:29:21;17.40;99.90
4673;DHT22;61885;53.560;9.940;2022-08-05T10:31:51;17.30;99.90
4673;DHT22;61885;53.560;9.940;2022-08-05T10:34:20;17.30;99.90
4673;DHT22;61885;53.560;9.940;2022-08-05T10:36:49;17.20;99.90
4673;DHT22;61885;53.560;9.940;2022-08-05T10:39:24;17.10;99.90
4673;DHT22;61885;53.560;9.940;2022-08-05T10:42:00;17.10;99.90
4673;DHT22;61885;53.560;9.940;2022-08-05T10:44:31;17.00;99.90
4673;DHT22;61885;53.560;9.940;2022-08-05T10:47:09;17.00;99.90
4673;DHT22;61885;53.560;9.940;2022-08-05T10:49:59;16.90;99.90
4673;DHT22;61885;53.560;9.940;2022-08-05T10:52:38;16.80;99.90
4673;DHT22;61885;53.560;9.940;2022-08-05T10:55:13;16.80;99.90
4673;DHT22;61885;53.560;9.940;2022-08-05T10:57:43;16.70;99.90
4673;DHT22;61885;53.560;9.940;2022-08-05T11:00:14;16.70;99.90
4673;DHT22;61885;53.560;9.940;2022-08-05T11:06:05;16.60;99.90
4673;DHT22;61885;53.560;9.940;2022-08-05T11:08:34;16.60;99.90
4673;DHT22;61885;53.560;9.940;2022-08-05T11:11:35;16.60;99.90
4673;DHT22;61885;53.560;9.940;2022-08-05T11:14:04;16.60;99.90
4673;DHT22;61885;53.560;9.940;2022-08-05T11:16:36;16.50;99.90
4673;DHT22;61885;53.560;9.940;2022-08-05T11:19:23;16.40;99.90
4673;DHT22;61885;53.560;9.940;2022-08-05T11:21:52;16.40;99.90
4673;DHT22;61885;53.560;9.940;2022-08-05T11:24:21;16.40;99.90
4673;DHT22;61885;53.560;9.940;2022-08-05T11:27:28;16.30;99.90
4673;DHT22;61885;53.560;9.940;2022-08-05T11:30:00;16.30;99.90
4673;DHT22;61885;53.560;9.940;2022-08-05T11:32:29;16.30;99.90
4673;DHT22;61885;53.560;9.940;2022-08-05T11:34:59;16.40;99.90
4673;DHT22;61885;53.560;9.940;2022-08-05T11:40:56;16.30;99.90
4673;DHT22;61885;53.560;9.940;2022-08-05T11:43:28;16.20;99.90
4673;DHT22;61885;53.560;9.940;2022-08-05T11:45:57;16.30;99.90
4673;DHT22;61885;53.560;9.940;2022-08-05T11:48:26;16.40;99.90
4673;DHT22;61885;53.560;9.940;2022-08-05T11:50:57;16.50;99.90
4673;DHT22;61885;53.560;9.940;2022-08-05T11:53:26;16.50;99.90
4673;DHT22;61885;53.560;9.940;2022-08-05T11:55:57;16.50;99.90
4673;DHT22;61885;53.560;9.940;2022-08-05T11:58:34;16.60;99.90
4673;DHT22;61885;53.560;9.940;2022-08-05T12:01:05;16.60;99.90
4673;DHT22;61885;53.560;9.940;2022-08-05T12:03:42;16.70;99.90
4673;DHT22;61885;53.560;9.940;2022-08-05T12:06:12;16.70;99.90
4673;DHT22;61885;53.560;9.940;2022-08-05T12:08:42;16.80;99.90
4673;DHT22;61885;53.560;9.940;2022-08-05T12:11:17;17.00;99.90
4673;DHT22;61885;53.560;9.940;2022-08-05T12:13:57;17.10;99.90
4673;DHT22;61885;53.560;9.940;2022-08-05T12:16:28;17.10;99.90
4673;DHT22;61885;53.560;9.940;2022-08-05T12:18:57;17.20;99.90
4673;DHT22;61885;53.560;9.940;2022-08-05T12:21:27;17.00;99.90
4673;DHT22;61885;53.560;9.940;2022-08-05T12:23:58;17.10;99.90
4673;DHT22;61885;53.560;9.940;2022-08-05T12:26:30;17.10;99.90
4673;DHT22;61885;53.560;9.940;2022-08-05T12:29:03;17.20;99.90
4673;DHT22;61885;53.560;9.940;2022-08-05T12:31:33;17.40;99.90
4673;DHT22;61885;53.560;9.940;2022-08-05T12:34:03;17.50;99.90
4673;DHT22;61885;53.560;9.940;2022-08-05T12:36:33;17.60;99.90
4673;DHT22;61885;53.560;9.940;2022-08-05T12:39:03;17.70;99.90
4673;DHT22;61885;53.560;9.940;2022-08-05T12:41:34;17.90;99.90
4673;DHT22;61885;53.560;9.940;2022-08-05T12:44:07;17.80;99.90
4673;DHT22;61885;53.560;9.940;2022-08-05T12:46:38;17.70;99.90
4673;DHT22;61885;53.560;9.940;2022-08-05T12:49:08;17.90;99.90
4673;DHT22;61885;53.560;9.940;2022-08-05T12:51:46;18.00;99.90
4673;DHT22;61885;53.560;9.940;2022-08-05T12:54:20;18.10;99.90
4673;DHT22;61885;53.560;9.940;2022-08-05T12:56:51;18.40;99.90
4673;DHT22;61885;53.560;9.940;2022-08-05T12:59:23;18.60;99.90
4673;DHT22;61885;53.560;9.940;2022-08-05T13:01:54;18.70;99.90
4673;DHT22;61885;53.560;9.940;2022-08-05T13:04:26;19.20;99.90
4673;DHT22;61885;53.560;9.940;2022-08-05T13:06:56;19.50;99.90
4673;DHT22;61885;53.560;9.940;2022-08-05T13:09:26;19.90;99.90
4673;DHT22;61885;53.560;9.940;2022-08-05T13:12:01;20.00;99.90
4673;DHT22;61885;53.560;9.940;2022-08-05T13:14:38;20.40;99.90
4673;DHT22;61885;53.560;9.940;2022-08-05T13:17:08;20.40;99.90
4673;DHT22;61885;53.560;9.940;2022-08-05T13:19:37;20.30;99.90
4673;DHT22;61885;53.560;9.940;2022-08-05T13:22:06;20.50;99.90
4673;DHT22;61885;53.560;9.940;2022-08-05T13:24:35;20.60;99.90
4673;DHT22;61885;53.560;9.940;2022-08-05T13:27:03;20.90;99.90
4673;DHT22;61885;53.560;9.940;2022-08-05T13:29:32;21.10;99.90
4673;DHT22;61885;53.560;9.940;2022-08-05T13:32:04;21.00;93.00
4673;DHT22;61885;53.560;9.940;2022-08-05T13:34:32;21.00;88.50
4673;DHT22;61885;53.560;9.940;2022-08-05T13:37:01;21.10;85.70
4673;DHT22;61885;53.560;9.940;2022-08-05T13:39:30;21.10;95.40
4673;DHT22;61885;53.560;9.940;2022-08-05T13:41:58;21.20;82.20
4673;DHT22;61885;53.560;9.940;2022-08-05T13:44:27;21.00;78.50
4673;DHT22;61885;53.560;9.940;2022-08-05T13:46:58;21.10;98.10
4673;DHT22;61885;53.560;9.940;2022-08-05T13:49:29;21.30;91.10
4673;DHT22;61885;53.560;9.940;2022-08-05T13:52:08;21.10;72.20
4673;DHT22;61885;53.560;9.940;2022-08-05T13:54:37;20.50;91.60
4673;DHT22;61885;53.560;9.940;2022-08-05T13:57:06;20.90;93.20
4673;DHT22;61885;53.560;9.940;2022-08-05T13:59:36;21.30;88.20
4673;DHT22;61885;53.560;9.940;2022-08-05T14:02:05;21.50;69.20
4673;DHT22;61885;53.560;9.940;2022-08-05T14:04:39;21.50;78.50
4673;DHT22;61885;53.560;9.940;2022-08-05T14:07:21;21.50;64.40
4673;DHT22;61885;53.560;9.940;2022-08-05T14:09:50;21.10;49.50
4673;DHT22;61885;53.560;9.940;2022-08-05T14:12:19;20.70;82.80
4673;DHT22;61885;53.560;9.940;2022-08-05T14:14:48;20.80;77.70
4673;DHT22;61885;53.560;9.940;2022-08-05T14:17:16;21.10;76.50
4673;DHT22;61885;53.560;9.940;2022-08-05T14:19:52;20.80;80.20
4673;DHT22;61885;53.560;9.940;2022-08-05T14:22:21;21.10;79.70
4673;DHT22;61885;53.560;9.940;2022-08-05T14:24:50;21.20;75.00
4673;DHT22;61885;53.560;9.940;2022-08-05T14:27:18;21.30;80.70
4673;DHT22;61885;53.560;9.940;2022-08-05T14:29:47;21.20;76.90
4673;DHT22;61885;53.560;9.940;2022-08-05T14:32:16;20.90;87.40
4673;DHT22;61885;53.560;9.940;2022-08-05T14:34:44;20.80;91.80
4673;DHT22;61885;53.560;9.940;2022-08-05T14:37:15;20.60;91.30
4673;DHT22;61885;53.560;9.940;2022-08-05T14:39:44;20.60;93.20
4673;DHT22;61885;53.560;9.940;2022-08-05T14:42:13;20.50;94.30
4673;DHT22;61885;53.560;9.940;2022-08-05T14:44:41;20.20;97.70
4673;DHT22;61885;53.560;9.940;2022-08-05T14:47:10;20.50;98.80
4673;DHT22;61885;53.560;9.940;2022-08-05T14:49:39;20.60;96.20
4673;DHT22;61885;53.560;9.940;2022-08-05T14:52:07;20.50;97.00
4673;DHT22;61885;53.560;9.940;2022-08-05T14:54:42;20.30;99.90
4673;DHT22;61885;53.560;9.940;2022-08-05T14:57:11;20.70;98.10
4673;DHT22;61885;53.560;9.940;2022-08-05T14:59:39;21.40;86.50
4673;DHT22;61885;53.560;9.940;2022-08-05T15:02:08;21.50;88.90
4673;DHT22;61885;53.560;9.940;2022-08-05T15:04:37;21.90;72.10
4673;DHT22;61885;53.560;9.940;2022-08-05T15:07:05;21.50;79.70
4673;DHT22;61885;53.560;9.940;2022-08-05T15:09:34;21.70;82.10
4673;DHT22;61885;53.560;9.940;2022-08-05T15:12:06;21.90;72.00
4673;DHT22;61885;53.560;9.940;2022-08-05T15:14:35;22.30;59.00
4673;DHT22;61885;53.560;9.940;2022-08-05T15:17:04;22.70;55.50
4673;DHT22;61885;53.560;9.940;2022-08-05T15:19:33;24.30;34.70
4673;DHT22;61885;53.560;9.940;2022-08-05T15:22:02;25.30;11.30
4673;DHT22;61885;53.560;9.940;2022-08-05T15:24:33;24.50;12.90
4673;DHT22;61885;53.560;9.940;2022-08-05T15:27:01;23.50;23.40
4673;DHT22;61885;53.560;9.940;2022-08-05T15:29:33;22.60;29.20
4673;DHT22;61885;53.560;9.940;2022-08-05T15:32:03;21.90;47.80
4673;DHT22;61885;53.560;9.940;2022-08-05T15:34:32;21.30;86.50
4673;DHT22;61885;53.560;9.940;2022-08-05T15:37:00;20.20;99.90
4673;DHT22;61885;53.560;9.940;2022-08-05T15:39:29;19.00;99.90
4673;DHT22;61885;53.560;9.940;2022-08-05T15:41:58;18.60;99.90
4673;DHT22;61885;53.560;9.940;2022-08-05T15:44:27;18.40;99.90
4673;DHT22;61885;53.560;9.940;2022-08-05T15:47:00;19.70;99.90
4673;DHT22;61885;53.560;9.940;2022-08-05T15:49:28;20.60;99.90
4673;DHT22;61885;53.560;9.940;2022-08-05T15:51:57;21.70;99.90
4673;DHT22;61885;53.560;9.940;2022-08-05T15:54:26;22.30;83.00
4673;DHT22;61885;53.560;9.940;2022-08-05T15:56:55;22.10;51.60
4673;DHT22;61885;53.560;9.940;2022-08-05T15:59:23;22.30;64.10
4673;DHT22;61885;53.560;9.940;2022-08-05T16:01:52;22.90;40.10
4673;DHT22;61885;53.560;9.940;2022-08-05T16:04:23;23.50;29.70
4673;DHT22;61885;53.560;9.940;2022-08-05T16:06:52;23.80;12.60
4673;DHT22;61885;53.560;9.940;2022-08-05T16:09:21;23.50;8.30
4673;DHT22;61885;53.560;9.940;2022-08-05T16:11:50;24.20;5.20
4673;DHT22;61885;53.560;9.940;2022-08-05T16:14:19;24.40;6.20
4673;DHT22;61885;53.560;9.940;2022-08-05T16:16:47;23.70;4.40
4673;DHT22;61885;53.560;9.940;2022-08-05T16:19:16;23.60;2.60